sensor_id;sensor_type;location;lat;lon;timestamp;temperature;humidity
32394;DHT22;18853;45.426;9.206;2022-11-06T00:01:59;17.40;50.90
32394;DHT22;18853;45.426;9.206;2022-11-06T00:04:28;17.40;51.10
32394;DHT22;18853;45.426;9.206;2022-11-06T00:06:54;17.40;51.20
32394;DHT22;18853;45.426;9.206;2022-11-06T00:09:20;17.30;51.20
32394;DHT22;18853;45.426;9.206;2022-11-06T00:11:47;17.30;51.10
32394;DHT22;18853;45.426;9.206;2022-11-06T00:14:13;17.30;51.10
32394;DHT22;18853;45.426;9.206;2022-11-06T00:16:40;17.30;51.10
32394;DHT22;18853;45.426;9.206;2022-11-06T00:19:07;17.30;51.10
32394;DHT22;18853;45.426;9.206;2022-11-06T00:21:33;17.20;51.20
32394;DHT22;18853;45.426;9.206;2022-11-06T00:24:00;17.20;51.20
32394;DHT22;18853;45.426;9.206;2022-11-06T00:26:28;17.20;51.20
32394;DHT22;18853;45.426;9.206;2022-11-06T00:28:54;17.20;51.20
32394;DHT22;18853;45.426;9.206;2022-11-06T00:31:26;17.10;51.20
32394;DHT22;18853;45.426;9.206;2022-11-06T00:33:56;17.10;51.20
32394;DHT22;18853;45.426;9.206;2022-11-06T00:36:23;17.00;51.40
32394;DHT22;18853;45.426;9.206;2022-11-06T00:38:53;17.00;51.40
32394;DHT22;18853;45.426;9.206;2022-11-06T00:41:20;17.00;51.50
32394;DHT22;18853;45.426;9.206;2022-11-06T00:43:54;17.00;51.70
32394;DHT22;18853;45.426;9.206;2022-11-06T00:46:21;17.00;51.90
32394;DHT22;18853;45.426;9.206;2022-11-06T00:48:46;16.90;52.00
32394;DHT22;18853;45.426;9.206;2022-11-06T00:51:15;16.90;52.20
32394;DHT22;18853;45.426;9.206;2022-11-06T00:53:42;16.90;52.30
32394;DHT22;18853;45.426;9.206;2022-11-06T00:56:16;16.80;52.40
32394;DHT22;18853;45.426;9.206;2022-11-06T00:58:43;16.80;52.40
32394;DHT22;18853;45.426;9.206;2022-11-06T01:01:11;16.80;52.50
32394;DHT22;18853;45.426;9.206;2022-11-06T01:03:38;16.70;52.60
32394;DHT22;18853;45.426;9.206;2022-11-06T01:06:25;16.70;52.80
32394;DHT22;18853;45.426;9.206;2022-11-06T01:08:51;16.70;53.10
32394;DHT22;18853;45.426;9.206;2022-11-06T01:11:23;16.60;53.70
32394;DHT22;18853;45.426;9.206;2022-11-06T01:13:51;16.60;53.30
32394;DHT22;18853;45.426;9.206;2022-11-06T01:16:18;16.60;53.30
32394;DHT22;18853;45.426;9.206;2022-11-06T01:18:44;16.50;53.30
32394;DHT22;18853;45.426;9.206;2022-11-06T01:21:13;16.50;53.40
32394;DHT22;18853;45.426;9.206;2022-11-06T01:23:39;16.50;53.40
32394;DHT22;18853;45.426;9.206;2022-11-06T01:26:07;16.50;53.50
32394;DHT22;18853;45.426;9.206;2022-11-06T01:28:33;16.50;53.50
32394;DHT22;18853;45.426;9.206;2022-11-06T01:31:10;16.50;53.70
32394;DHT22;18853;45.426;9.206;2022-11-06T01:33:36;16.50;53.80
32394;DHT22;18853;45.426;9.206;2022-11-06T01:36:02;16.40;53.80
32394;DHT22;18853;45.426;9.206;2022-11-06T01:38:28;16.40;53.80
32394;DHT22;18853;45.426;9.206;2022-11-06T01:40:54;16.50;53.80
32394;DHT22;18853;45.426;9.206;2022-11-06T01:43:41;16.50;53.80
32394;DHT22;18853;45.426;9.206;2022-11-06T01:46:08;16.40;53.80
32394;DHT22;18853;45.426;9.206;2022-11-06T01:48:33;16.40;53.90
32394;DHT22;18853;45.426;9.206;2022-11-06T01:51:00;16.50;54.00
32394;DHT22;18853;45.426;9.206;2022-11-06T01:53:26;16.50;54.00
32394;DHT22;18853;45.426;9.206;2022-11-06T01:55:55;16.50;54.00
32394;DHT22;18853;45.426;9.206;2022-11-06T01:58:25;16.50;53.90
32394;DHT22;18853;45.426;9.206;2022-11-06T02:00:51;16.40;53.80
32394;DHT22;18853;45.426;9.206;2022-11-06T02:03:18;16.40;53.80
32394;DHT22;18853;45.426;9.206;2022-11-06T02:05:44;16.40;53.90
32394;DHT22;18853;45.426;9.206;2022-11-06T02:08:13;16.40;53.90
32394;DHT22;18853;45.426;9.206;2022-11-06T02:10:39;16.40;54.00
32394;DHT22;18853;45.426;9.206;2022-11-06T02:18:55;16.20;54.50
32394;DHT22;18853;45.426;9.206;2022-11-06T02:21:33;16.20;54.70
32394;DHT22;18853;45.426;9.206;2022-11-06T02:24:26;16.20;54.70
32394;DHT22;18853;45.426;9.206;2022-11-06T02:27:10;16.20;54.70
32394;DHT22;18853;45.426;9.206;2022-11-06T02:29:58;16.20;54.70
32394;DHT22;18853;45.426;9.206;2022-11-06T02:32:56;16.20;54.80
32394;DHT22;18853;45.426;9.206;2022-11-06T02:35:30;16.20;54.80
32394;DHT22;18853;45.426;9.206;2022-11-06T02:38:09;16.20;54.80
32394;DHT22;18853;45.426;9.206;2022-11-06T02:40:40;16.10;54.60
32394;DHT22;18853;45.426;9.206;2022-11-06T02:43:08;16.20;54.40
32394;DHT22;18853;45.426;9.206;2022-11-06T02:46:19;16.20;54.10
32394;DHT22;18853;45.426;9.206;2022-11-06T02:48:42;16.20;54.30
32394;DHT22;18853;45.426;9.206;2022-11-06T02:51:11;16.00;53.40
32394;DHT22;18853;45.426;9.206;2022-11-06T02:53:39;15.90;53.50
32394;DHT22;18853;45.426;9.206;2022-11-06T02:56:22;15.90;53.60
32394;DHT22;18853;45.426;9.206;2022-11-06T02:58:54;15.90;53.50
32394;DHT22;18853;45.426;9.206;2022-11-06T03:01:36;15.80;53.60
32394;DHT22;18853;45.426;9.206;2022-11-06T03:04:18;15.80;53.60
32394;DHT22;18853;45.426;9.206;2022-11-06T03:06:51;15.80;53.90
32394;DHT22;18853;45.426;9.206;2022-11-06T03:09:23;15.80;53.90
32394;DHT22;18853;45.426;9.206;2022-11-06T03:11:56;15.80;53.70
32394;DHT22;18853;45.426;9.206;2022-11-06T03:14:32;15.80;53.80
32394;DHT22;18853;45.426;9.206;2022-11-06T03:17:04;15.80;53.80
32394;DHT22;18853;45.426;9.206;2022-11-06T03:19:59;15.70;53.90
32394;DHT22;18853;45.426;9.206;2022-11-06T03:28:16;15.70;54.10
32394;DHT22;18853;45.426;9.206;2022-11-06T03:30:53;15.80;54.00
32394;DHT22;18853;45.426;9.206;2022-11-06T03:36:34;15.70;53.80
32394;DHT22;18853;45.426;9.206;2022-11-06T03:39:24;15.70;53.90
32394;DHT22;18853;45.426;9.206;2022-11-06T03:42:08;15.70;53.70
32394;DHT22;18853;45.426;9.206;2022-11-06T03:44:39;15.60;53.50
32394;DHT22;18853;45.426;9.206;2022-11-06T03:47:23;15.50;53.40
32394;DHT22;18853;45.426;9.206;2022-11-06T03:50:06;15.50;53.30
32394;DHT22;18853;45.426;9.206;2022-11-06T03:52:39;15.40;53.30
32394;DHT22;18853;45.426;9.206;2022-11-06T03:55:18;15.40;53.40
32394;DHT22;18853;45.426;9.206;2022-11-06T03:57:51;15.40;53.40
32394;DHT22;18853;45.426;9.206;2022-11-06T04:00:19;15.30;53.50
32394;DHT22;18853;45.426;9.206;2022-11-06T04:02:55;15.10;53.40
32394;DHT22;18853;45.426;9.206;2022-11-06T04:05:31;15.20;53.40
32394;DHT22;18853;45.426;9.206;2022-11-06T04:07:58;15.20;53.40
32394;DHT22;18853;45.426;9.206;2022-11-06T04:10:47;15.20;53.50
32394;DHT22;18853;45.426;9.206;2022-11-06T04:13:51;15.10;53.50
32394;DHT22;18853;45.426;9.206;2022-11-06T04:16:26;15.00;53.70
32394;DHT22;18853;45.426;9.206;2022-11-06T04:18:52;14.80;54.00
32394;DHT22;18853;45.426;9.206;2022-11-06T04:21:36;14.90;54.10
32394;DHT22;18853;45.426;9.206;2022-11-06T04:24:30;15.00;54.10
32394;DHT22;18853;45.426;9.206;2022-11-06T04:30:15;15.00;53.90
32394;DHT22;18853;45.426;9.206;2022-11-06T04:33:06;14.90;54.10
32394;DHT22;18853;45.426;9.206;2022-11-06T04:41:23;14.90;54.10
32394;DHT22;18853;45.426;9.206;2022-11-06T04:46:29;14.80;54.30
32394;DHT22;18853;45.426;9.206;2022-11-06T04:48:57;14.80;54.40
32394;DHT22;18853;45.426;9.206;2022-11-06T04:51:26;14.80;54.30
32394;DHT22;18853;45.426;9.206;2022-11-06T04:53:55;14.90;54.30
32394;DHT22;18853;45.426;9.206;2022-11-06T04:56:33;14.80;54.20
32394;DHT22;18853;45.426;9.206;2022-11-06T04:58:59;14.90;54.20
32394;DHT22;18853;45.426;9.206;2022-11-06T05:01:25;14.80;54.30
32394;DHT22;18853;45.426;9.206;2022-11-06T05:03:51;14.80;54.30
32394;DHT22;18853;45.426;9.206;2022-11-06T05:06:17;14.90;54.30
32394;DHT22;18853;45.426;9.206;2022-11-06T05:08:43;14.90;54.20
32394;DHT22;18853;45.426;9.206;2022-11-06T05:11:09;14.90;54.20
32394;DHT22;18853;45.426;9.206;2022-11-06T05:13:34;14.90;54.20
32394;DHT22;18853;45.426;9.206;2022-11-06T05:16:01;15.00;54.40
32394;DHT22;18853;45.426;9.206;2022-11-06T05:18:27;15.00;54.30
32394;DHT22;18853;45.426;9.206;2022-11-06T05:20:53;14.90;54.30
32394;DHT22;18853;45.426;9.206;2022-11-06T05:23:39;14.90;54.30
32394;DHT22;18853;45.426;9.206;2022-11-06T05:26:06;14.90;54.50
32394;DHT22;18853;45.426;9.206;2022-11-06T05:28:33;14.90;54.50
32394;DHT22;18853;45.426;9.206;2022-11-06T05:30:58;14.90;54.30
32394;DHT22;18853;45.426;9.206;2022-11-06T05:33:24;14.90;53.90
32394;DHT22;18853;45.426;9.206;2022-11-06T05:35:50;14.90;53.50
32394;DHT22;18853;45.426;9.206;2022-11-06T05:38:17;14.80;53.30
32394;DHT22;18853;45.426;9.206;2022-11-06T05:40:43;14.80;53.10
32394;DHT22;18853;45.426;9.206;2022-11-06T05:43:09;14.80;52.90
32394;DHT22;18853;45.426;9.206;2022-11-06T05:45:35;14.80;57.50
32394;DHT22;18853;45.426;9.206;2022-11-06T05:48:01;15.50;59.60
32394;DHT22;18853;45.426;9.206;2022-11-06T05:50:27;16.20;57.60
32394;DHT22;18853;45.426;9.206;2022-11-06T05:52:53;16.60;55.20
32394;DHT22;18853;45.426;9.206;2022-11-06T05:55:18;17.00;53.40
32394;DHT22;18853;45.426;9.206;2022-11-06T05:57:44;17.20;52.00
32394;DHT22;18853;45.426;9.206;2022-11-06T06:00:11;17.40;49.70
32394;DHT22;18853;45.426;9.206;2022-11-06T06:02:37;17.10;48.60
32394;DHT22;18853;45.426;9.206;2022-11-06T06:05:03;16.70;48.80
32394;DHT22;18853;45.426;9.206;2022-11-06T06:07:30;16.30;49.10
32394;DHT22;18853;45.426;9.206;2022-11-06T06:09:56;16.00;49.60
32394;DHT22;18853;45.426;9.206;2022-11-06T06:12:21;15.70;49.90
32394;DHT22;18853;45.426;9.206;2022-11-06T06:14:51;15.50;50.20
32394;DHT22;18853;45.426;9.206;2022-11-06T06:17:16;15.40;50.50
32394;DHT22;18853;45.426;9.206;2022-11-06T06:19:42;15.20;50.70
32394;DHT22;18853;45.426;9.206;2022-11-06T06:22:08;15.00;50.90
32394;DHT22;18853;45.426;9.206;2022-11-06T06:24:34;15.00;51.00
32394;DHT22;18853;45.426;9.206;2022-11-06T06:27:00;14.90;51.20
32394;DHT22;18853;45.426;9.206;2022-11-06T06:29:25;14.80;51.30
32394;DHT22;18853;45.426;9.206;2022-11-06T06:31:52;14.80;51.30
32394;DHT22;18853;45.426;9.206;2022-11-06T06:34:17;14.70;51.30
32394;DHT22;18853;45.426;9.206;2022-11-06T06:36:43;14.60;51.50
32394;DHT22;18853;45.426;9.206;2022-11-06T06:39:09;14.70;51.60
32394;DHT22;18853;45.426;9.206;2022-11-06T06:41:35;14.60;51.60
32394;DHT22;18853;45.426;9.206;2022-11-06T06:44:00;14.60;51.60
32394;DHT22;18853;45.426;9.206;2022-11-06T06:46:26;14.50;51.70
32394;DHT22;18853;45.426;9.206;2022-11-06T06:48:52;14.50;52.50
32394;DHT22;18853;45.426;9.206;2022-11-06T06:51:17;14.40;52.20
32394;DHT22;18853;45.426;9.206;2022-11-06T06:53:43;14.40;52.50
32394;DHT22;18853;45.426;9.206;2022-11-06T06:56:09;14.40;52.80
32394;DHT22;18853;45.426;9.206;2022-11-06T06:58:35;14.40;53.00
32394;DHT22;18853;45.426;9.206;2022-11-06T07:01:03;14.30;53.10
32394;DHT22;18853;45.426;9.206;2022-11-06T07:03:29;14.30;53.30
32394;DHT22;18853;45.426;9.206;2022-11-06T07:05:58;14.30;53.40
32394;DHT22;18853;45.426;9.206;2022-11-06T07:08:25;14.40;53.50
32394;DHT22;18853;45.426;9.206;2022-11-06T07:10:51;14.40;53.60
32394;DHT22;18853;45.426;9.206;2022-11-06T07:13:17;14.40;53.60
32394;DHT22;18853;45.426;9.206;2022-11-06T07:15:42;14.40;53.70
32394;DHT22;18853;45.426;9.206;2022-11-06T07:18:08;14.40;53.80
32394;DHT22;18853;45.426;9.206;2022-11-06T07:20:34;14.50;53.80
32394;DHT22;18853;45.426;9.206;2022-11-06T07:23:09;14.60;53.80
32394;DHT22;18853;45.426;9.206;2022-11-06T07:25:35;14.60;53.60
32394;DHT22;18853;45.426;9.206;2022-11-06T07:28:05;14.70;53.60
32394;DHT22;18853;45.426;9.206;2022-11-06T07:30:32;14.70;53.60
32394;DHT22;18853;45.426;9.206;2022-11-06T07:33:02;14.70;53.50
32394;DHT22;18853;45.426;9.206;2022-11-06T07:35:29;14.70;53.50
32394;DHT22;18853;45.426;9.206;2022-11-06T07:37:55;14.60;53.30
32394;DHT22;18853;45.426;9.206;2022-11-06T07:40:20;14.60;53.10
32394;DHT22;18853;45.426;9.206;2022-11-06T07:42:46;14.70;52.80
32394;DHT22;18853;45.426;9.206;2022-11-06T07:45:12;14.70;52.60
32394;DHT22;18853;45.426;9.206;2022-11-06T07:47:38;14.80;52.60
32394;DHT22;18853;45.426;9.206;2022-11-06T07:50:04;14.80;52.50
32394;DHT22;18853;45.426;9.206;2022-11-06T07:52:30;14.80;52.40
32394;DHT22;18853;45.426;9.206;2022-11-06T07:54:56;14.90;53.00
32394;DHT22;18853;45.426;9.206;2022-11-06T07:57:21;14.90;52.40
32394;DHT22;18853;45.426;9.206;2022-11-06T07:59:47;15.00;52.30
32394;DHT22;18853;45.426;9.206;2022-11-06T08:02:13;15.00;52.30
32394;DHT22;18853;45.426;9.206;2022-11-06T08:04:39;15.00;52.20
32394;DHT22;18853;45.426;9.206;2022-11-06T08:07:05;15.20;53.00
32394;DHT22;18853;45.426;9.206;2022-11-06T08:09:31;15.20;52.70
32394;DHT22;18853;45.426;9.206;2022-11-06T08:11:57;15.20;53.00
32394;DHT22;18853;45.426;9.206;2022-11-06T08:14:22;15.20;53.20
32394;DHT22;18853;45.426;9.206;2022-11-06T08:16:48;15.20;53.40
32394;DHT22;18853;45.426;9.206;2022-11-06T08:19:14;15.30;53.20
32394;DHT22;18853;45.426;9.206;2022-11-06T08:21:39;15.40;53.20
32394;DHT22;18853;45.426;9.206;2022-11-06T08:24:05;15.90;57.40
32394;DHT22;18853;45.426;9.206;2022-11-06T08:26:32;16.30;55.10
32394;DHT22;18853;45.426;9.206;2022-11-06T08:28:57;16.30;52.10
32394;DHT22;18853;45.426;9.206;2022-11-06T08:31:23;16.20;51.80
32394;DHT22;18853;45.426;9.206;2022-11-06T08:33:49;16.10;51.70
32394;DHT22;18853;45.426;9.206;2022-11-06T08:36:15;16.00;51.80
32394;DHT22;18853;45.426;9.206;2022-11-06T08:38:41;16.00;51.60
32394;DHT22;18853;45.426;9.206;2022-11-06T08:41:11;16.00;51.20
32394;DHT22;18853;45.426;9.206;2022-11-06T08:43:37;16.10;51.30
32394;DHT22;18853;45.426;9.206;2022-11-06T08:46:05;16.00;51.00
32394;DHT22;18853;45.426;9.206;2022-11-06T08:48:31;16.00;51.00
32394;DHT22;18853;45.426;9.206;2022-11-06T08:50:57;16.00;50.70
32394;DHT22;18853;45.426;9.206;2022-11-06T08:53:23;16.00;50.60
32394;DHT22;18853;45.426;9.206;2022-11-06T08:55:48;16.10;50.60
32394;DHT22;18853;45.426;9.206;2022-11-06T08:58:14;16.10;49.80
32394;DHT22;18853;45.426;9.206;2022-11-06T09:00:40;16.10;49.40
32394;DHT22;18853;45.426;9.206;2022-11-06T09:03:12;16.10;49.30
32394;DHT22;18853;45.426;9.206;2022-11-06T09:05:39;16.10;49.20
32394;DHT22;18853;45.426;9.206;2022-11-06T09:08:06;16.20;49.30
32394;DHT22;18853;45.426;9.206;2022-11-06T09:10:32;16.20;49.10
32394;DHT22;18853;45.426;9.206;2022-11-06T09:12:58;16.30;48.90
32394;DHT22;18853;45.426;9.206;2022-11-06T09:15:24;16.30;48.70
32394;DHT22;18853;45.426;9.206;2022-11-06T09:17:50;16.30;48.70
32394;DHT22;18853;45.426;9.206;2022-11-06T09:20:18;16.30;48.80
32394;DHT22;18853;45.426;9.206;2022-11-06T09:22:45;16.40;48.80
32394;DHT22;18853;45.426;9.206;2022-11-06T09:25:12;16.30;48.40
32394;DHT22;18853;45.426;9.206;2022-11-06T09:27:46;16.20;48.20
32394;DHT22;18853;45.426;9.206;2022-11-06T09:30:14;16.30;47.80
32394;DHT22;18853;45.426;9.206;2022-11-06T09:32:48;16.40;47.50
32394;DHT22;18853;45.426;9.206;2022-11-06T09:35:15;16.30;46.50
32394;DHT22;18853;45.426;9.206;2022-11-06T09:37:41;16.30;47.10
32394;DHT22;18853;45.426;9.206;2022-11-06T09:40:08;16.40;46.80
32394;DHT22;18853;45.426;9.206;2022-11-06T09:42:56;16.40;46.60
32394;DHT22;18853;45.426;9.206;2022-11-06T09:45:28;16.50;46.50
32394;DHT22;18853;45.426;9.206;2022-11-06T09:50:43;16.70;46.20
32394;DHT22;18853;45.426;9.206;2022-11-06T09:55:52;16.70;45.50
32394;DHT22;18853;45.426;9.206;2022-11-06T09:58:29;16.70;45.60
32394;DHT22;18853;45.426;9.206;2022-11-06T10:00:59;16.80;45.50
32394;DHT22;18853;45.426;9.206;2022-11-06T10:06:21;16.70;45.00
32394;DHT22;18853;45.426;9.206;2022-11-06T10:08:47;16.70;45.40
32394;DHT22;18853;45.426;9.206;2022-11-06T10:19:09;16.90;44.60
32394;DHT22;18853;45.426;9.206;2022-11-06T10:22:17;16.90;45.00
32394;DHT22;18853;45.426;9.206;2022-11-06T10:24:50;17.00;45.30
32394;DHT22;18853;45.426;9.206;2022-11-06T10:27:27;16.90;44.90
32394;DHT22;18853;45.426;9.206;2022-11-06T10:35:30;17.10;45.20
32394;DHT22;18853;45.426;9.206;2022-11-06T10:38:17;17.10;44.70
32394;DHT22;18853;45.426;9.206;2022-11-06T10:40:45;17.20;44.90
32394;DHT22;18853;45.426;9.206;2022-11-06T10:46:35;17.30;43.60
32394;DHT22;18853;45.426;9.206;2022-11-06T10:49:05;17.20;43.60
32394;DHT22;18853;45.426;9.206;2022-11-06T10:51:55;17.20;43.80
32394;DHT22;18853;45.426;9.206;2022-11-06T10:59:36;17.30;44.00
32394;DHT22;18853;45.426;9.206;2022-11-06T11:02:02;17.30;43.90
32394;DHT22;18853;45.426;9.206;2022-11-06T11:04:31;17.30;43.80
32394;DHT22;18853;45.426;9.206;2022-11-06T11:07:01;17.30;44.30
32394;DHT22;18853;45.426;9.206;2022-11-06T11:09:32;17.40;44.80
32394;DHT22;18853;45.426;9.206;2022-11-06T11:11:58;17.50;45.80
32394;DHT22;18853;45.426;9.206;2022-11-06T11:14:26;17.50;44.80
32394;DHT22;18853;45.426;9.206;2022-11-06T11:16:53;17.50;44.70
32394;DHT22;18853;45.426;9.206;2022-11-06T11:19:32;17.60;45.00
32394;DHT22;18853;45.426;9.206;2022-11-06T11:22:04;17.60;44.80
32394;DHT22;18853;45.426;9.206;2022-11-06T11:24:32;17.70;45.00
32394;DHT22;18853;45.426;9.206;2022-11-06T11:27:00;17.70;44.80
32394;DHT22;18853;45.426;9.206;2022-11-06T11:29:41;17.70;45.40
32394;DHT22;18853;45.426;9.206;2022-11-06T11:32:13;17.80;46.70
32394;DHT22;18853;45.426;9.206;2022-11-06T11:34:45;17.90;45.10
32394;DHT22;18853;45.426;9.206;2022-11-06T11:37:29;17.90;44.90
32394;DHT22;18853;45.426;9.206;2022-11-06T11:40:16;18.00;45.70
32394;DHT22;18853;45.426;9.206;2022-11-06T11:42:41;18.00;45.80
32394;DHT22;18853;45.426;9.206;2022-11-06T11:45:14;18.00;44.40
32394;DHT22;18853;45.426;9.206;2022-11-06T11:47:43;18.10;44.50
32394;DHT22;18853;45.426;9.206;2022-11-06T11:52:58;18.20;44.70
32394;DHT22;18853;45.426;9.206;2022-11-06T11:55:26;18.20;44.60
32394;DHT22;18853;45.426;9.206;2022-11-06T11:57:55;18.30;44.10
32394;DHT22;18853;45.426;9.206;2022-11-06T12:00:22;18.30;43.80
32394;DHT22;18853;45.426;9.206;2022-11-06T12:02:58;18.30;43.50
32394;DHT22;18853;45.426;9.206;2022-11-06T12:05:33;18.40;43.50
32394;DHT22;18853;45.426;9.206;2022-11-06T12:08:00;18.50;44.00
32394;DHT22;18853;45.426;9.206;2022-11-06T12:10:43;18.50;43.90
32394;DHT22;18853;45.426;9.206;2022-11-06T12:18:41;18.70;43.00
32394;DHT22;18853;45.426;9.206;2022-11-06T12:21:10;18.70;43.10
32394;DHT22;18853;45.426;9.206;2022-11-06T12:28:57;19.00;41.30
32394;DHT22;18853;45.426;9.206;2022-11-06T12:34:32;19.20;40.90
32394;DHT22;18853;45.426;9.206;2022-11-06T12:37:12;19.30;40.80
32394;DHT22;18853;45.426;9.206;2022-11-06T12:39:51;19.40;40.50
32394;DHT22;18853;45.426;9.206;2022-11-06T12:42:20;19.60;39.80
32394;DHT22;18853;45.426;9.206;2022-11-06T12:44:47;19.70;38.10
32394;DHT22;18853;45.426;9.206;2022-11-06T12:47:41;19.70;37.30
32394;DHT22;18853;45.426;9.206;2022-11-06T12:50:57;19.70;36.40
32394;DHT22;18853;45.426;9.206;2022-11-06T12:53:45;19.70;35.50
32394;DHT22;18853;45.426;9.206;2022-11-06T13:04:27;20.50;43.40
32394;DHT22;18853;45.426;9.206;2022-11-06T13:10:17;21.00;37.00
32394;DHT22;18853;45.426;9.206;2022-11-06T13:16:21;21.20;35.90
32394;DHT22;18853;45.426;9.206;2022-11-06T13:18:38;21.30;35.80
32394;DHT22;18853;45.426;9.206;2022-11-06T13:24:15;21.40;34.80
32394;DHT22;18853;45.426;9.206;2022-11-06T13:27:00;21.40;35.40
32394;DHT22;18853;45.426;9.206;2022-11-06T13:29:26;21.40;34.50
32394;DHT22;18853;45.426;9.206;2022-11-06T13:31:57;21.40;35.90
32394;DHT22;18853;45.426;9.206;2022-11-06T13:34:28;21.40;35.00
32394;DHT22;18853;45.426;9.206;2022-11-06T13:36:55;21.30;34.00
32394;DHT22;18853;45.426;9.206;2022-11-06T13:41:51;21.10;34.30
32394;DHT22;18853;45.426;9.206;2022-11-06T13:44:18;21.10;34.70
32394;DHT22;18853;45.426;9.206;2022-11-06T13:55:03;21.20;34.20
32394;DHT22;18853;45.426;9.206;2022-11-06T13:57:56;21.10;34.80
32394;DHT22;18853;45.426;9.206;2022-11-06T14:00:44;21.00;35.20
32394;DHT22;18853;45.426;9.206;2022-11-06T14:06:37;20.90;34.50
32394;DHT22;18853;45.426;9.206;2022-11-06T14:09:09;20.70;35.70
32394;DHT22;18853;45.426;9.206;2022-11-06T14:11:40;20.70;36.20
32394;DHT22;18853;45.426;9.206;2022-11-06T14:17:09;20.60;36.90
32394;DHT22;18853;45.426;9.206;2022-11-06T14:19:36;20.60;37.40
32394;DHT22;18853;45.426;9.206;2022-11-06T14:24:38;20.50;38.60
32394;DHT22;18853;45.426;9.206;2022-11-06T14:34:55;20.40;38.20
32394;DHT22;18853;45.426;9.206;2022-11-06T14:42:30;20.40;41.40
32394;DHT22;18853;45.426;9.206;2022-11-06T14:50:26;20.50;43.10
32394;DHT22;18853;45.426;9.206;2022-11-06T14:55:38;20.50;42.40
32394;DHT22;18853;45.426;9.206;2022-11-06T14:58:16;20.50;41.30
32394;DHT22;18853;45.426;9.206;2022-11-06T15:09:10;20.40;41.00
32394;DHT22;18853;45.426;9.206;2022-11-06T15:21:49;21.10;39.30
32394;DHT22;18853;45.426;9.206;2022-11-06T15:24:32;21.10;39.30
32394;DHT22;18853;45.426;9.206;2022-11-06T15:27:06;20.90;39.40
32394;DHT22;18853;45.426;9.206;2022-11-06T15:29:36;20.90;39.50
32394;DHT22;18853;45.426;9.206;2022-11-06T15:32:52;20.70;39.90
32394;DHT22;18853;45.426;9.206;2022-11-06T15:37:51;20.50;40.40
32394;DHT22;18853;45.426;9.206;2022-11-06T15:40:31;20.40;40.60
32394;DHT22;18853;45.426;9.206;2022-11-06T15:43:21;20.30;41.00
32394;DHT22;18853;45.426;9.206;2022-11-06T15:46:43;20.20;41.00
32394;DHT22;18853;45.426;9.206;2022-11-06T15:49:18;20.00;41.10
32394;DHT22;18853;45.426;9.206;2022-11-06T15:52:00;19.90;40.90
32394;DHT22;18853;45.426;9.206;2022-11-06T15:54:44;19.80;40.90
32394;DHT22;18853;45.426;9.206;2022-11-06T15:57:25;19.80;41.40
32394;DHT22;18853;45.426;9.206;2022-11-06T16:03:09;19.70;42.20
32394;DHT22;18853;45.426;9.206;2022-11-06T16:05:35;19.70;42.30
32394;DHT22;18853;45.426;9.206;2022-11-06T16:08:03;19.60;42.70
32394;DHT22;18853;45.426;9.206;2022-11-06T16:10:31;19.50;42.80
32394;DHT22;18853;45.426;9.206;2022-11-06T16:12:58;19.50;43.00
32394;DHT22;18853;45.426;9.206;2022-11-06T16:20:37;19.40;43.10
32394;DHT22;18853;45.426;9.206;2022-11-06T16:23:04;19.30;43.20
32394;DHT22;18853;45.426;9.206;2022-11-06T16:25:30;19.30;43.20
32394;DHT22;18853;45.426;9.206;2022-11-06T16:27:55;19.30;42.80
32394;DHT22;18853;45.426;9.206;2022-11-06T16:30:22;19.30;42.60
32394;DHT22;18853;45.426;9.206;2022-11-06T16:32:48;19.20;42.60
32394;DHT22;18853;45.426;9.206;2022-11-06T16:35:34;19.20;42.90
32394;DHT22;18853;45.426;9.206;2022-11-06T16:38:34;19.20;42.80
32394;DHT22;18853;45.426;9.206;2022-11-06T16:41:00;19.10;43.00
32394;DHT22;18853;45.426;9.206;2022-11-06T16:43:26;19.00;43.50
32394;DHT22;18853;45.426;9.206;2022-11-06T16:50:58;18.90;42.80
32394;DHT22;18853;45.426;9.206;2022-11-06T16:53:32;18.90;42.70
32394;DHT22;18853;45.426;9.206;2022-11-06T16:56:01;19.00;42.80
32394;DHT22;18853;45.426;9.206;2022-11-06T16:58:29;18.90;43.30
32394;DHT22;18853;45.426;9.206;2022-11-06T17:01:02;18.90;43.50
32394;DHT22;18853;45.426;9.206;2022-11-06T17:03:39;18.90;43.70
32394;DHT22;18853;45.426;9.206;2022-11-06T17:06:08;18.80;43.90
32394;DHT22;18853;45.426;9.206;2022-11-06T17:08:42;18.80;44.10
32394;DHT22;18853;45.426;9.206;2022-11-06T17:13:36;18.70;44.40
32394;DHT22;18853;45.426;9.206;2022-11-06T17:16:04;18.70;44.30
32394;DHT22;18853;45.426;9.206;2022-11-06T17:18:38;18.80;44.40
32394;DHT22;18853;45.426;9.206;2022-11-06T17:21:11;18.80;44.50
32394;DHT22;18853;45.426;9.206;2022-11-06T17:23:38;18.70;44.40
32394;DHT22;18853;45.426;9.206;2022-11-06T17:26:05;18.80;44.30
32394;DHT22;18853;45.426;9.206;2022-11-06T17:28:31;18.80;44.90
32394;DHT22;18853;45.426;9.206;2022-11-06T17:30:57;18.70;44.40
32394;DHT22;18853;45.426;9.206;2022-11-06T17:33:23;18.70;44.70
32394;DHT22;18853;45.426;9.206;2022-11-06T17:35:49;18.60;44.80
32394;DHT22;18853;45.426;9.206;2022-11-06T17:38:16;18.60;45.10
32394;DHT22;18853;45.426;9.206;2022-11-06T17:40:43;18.60;45.40
32394;DHT22;18853;45.426;9.206;2022-11-06T17:43:09;18.60;45.60
32394;DHT22;18853;45.426;9.206;2022-11-06T17:45:36;18.50;45.70
32394;DHT22;18853;45.426;9.206;2022-11-06T17:48:05;18.40;45.70
32394;DHT22;18853;45.426;9.206;2022-11-06T17:50:31;18.40;45.80
32394;DHT22;18853;45.426;9.206;2022-11-06T17:53:16;18.40;45.90
32394;DHT22;18853;45.426;9.206;2022-11-06T17:55:42;18.40;46.00
32394;DHT22;18853;45.426;9.206;2022-11-06T17:58:10;18.30;45.90
32394;DHT22;18853;45.426;9.206;2022-11-06T18:00:36;18.30;45.80
32394;DHT22;18853;45.426;9.206;2022-11-06T18:03:02;18.20;45.90
32394;DHT22;18853;45.426;9.206;2022-11-06T18:05:28;18.20;46.00
32394;DHT22;18853;45.426;9.206;2022-11-06T18:07:53;18.20;46.20
32394;DHT22;18853;45.426;9.206;2022-11-06T18:10:22;18.10;46.30
32394;DHT22;18853;45.426;9.206;2022-11-06T18:12:47;18.10;46.30
32394;DHT22;18853;45.426;9.206;2022-11-06T18:15:16;18.20;49.00
32394;DHT22;18853;45.426;9.206;2022-11-06T18:17:42;18.40;52.20
32394;DHT22;18853;45.426;9.206;2022-11-06T18:20:08;18.50;48.10
32394;DHT22;18853;45.426;9.206;2022-11-06T18:22:35;18.40;47.50
32394;DHT22;18853;45.426;9.206;2022-11-06T18:25:00;18.50;48.40
32394;DHT22;18853;45.426;9.206;2022-11-06T18:27:26;18.50;48.20
32394;DHT22;18853;45.426;9.206;2022-11-06T18:29:52;18.60;48.00
32394;DHT22;18853;45.426;9.206;2022-11-06T18:32:17;18.60;48.00
32394;DHT22;18853;45.426;9.206;2022-11-06T18:34:43;18.50;47.10
32394;DHT22;18853;45.426;9.206;2022-11-06T18:37:09;18.60;48.20
32394;DHT22;18853;45.426;9.206;2022-11-06T18:39:35;18.60;48.40
32394;DHT22;18853;45.426;9.206;2022-11-06T18:42:00;18.70;48.70